Accueil
METAR-TAF:

METAR-TAF

Aéroports :

Aéroport de Bergerac-Dordogne-Périgord

Bergerac, France

latitude: 44-49N, longitude: 000-31E, altitude: 51 m

Observation

Le bulletin a été fait il y a 40 minutes, à 06:00 UTC
Vent 8 kt de ouest
Température 12°C
Humidité 82%
Pression 1016 hPa
Visibilité 10 km ou plus
Nuages épars à une hauteur de 4600 ft
Nuages fragmentés à une hauteur de 5400 ft

METAR: LFBE 280600Z AUTO 28008KT 9999 SCT046 BKN054 12/09 Q1016 NOSIG

Heure: 08:40 (06:40 UTC)

Prévision

Le bulletin a été fait il y a 1 heure et 40 minutes, à 05:00 UTC
Prévision valable du 28 à 06 UTC au 29 à 06 UTC
Vent 7 kt de ouest
Visibilité 10 km ou plus
Nuages fragmentés à une hauteur de 3000 ft
Probabilité 30%
du 29 à 00 UTC au 29 à 06 UTC
Visibilité: 3000 m
brume

TAF: LFBE 280500Z 2806/2906 28007KT 9999 BKN030 PROB30 2900/2906 3000 BR

Observations et prévisions météorologiques de plus de 4000 aéroports (messages METAR et TAF).

Les stations disponibles sont représentées par des disques jaunes et rouges sur la carte.

Passer la souris dessus pour voir le nom de la station.

Cliquer dessus pour voir les observations et prévisions météorologiques.

Pour changer de carte: cliquez sur les boutons verts avec une croix noire pour zoomer, sur le bouton vert avec un tiret pour effectuer un zoom arrière, ou sur les flèches vertes pour les cartes adjacentes.


METAR-TAF: